Aviation Digital Data Service (ADDS)

Output produced by TAFs form (1337 UTC 20 November 2017)
found at http://aviationweather.gov/adds/tafs/
 
KFUL 201253Z 08007KT 10SM CLR 11/03 A2997 RMK AO2 SLP147 T01060028
KBUR 201253Z AUTO 01003KT 10SM CLR 09/M01 A2998 RMK AO2 SLP142 T00941006
KBUR 201127Z 2012/2112 VRB03KT P6SM BKN200 
     FM202100 16007KT P6SM BKN200 
     FM210200 VRB03KT P6SM SCT250
       
KONT 201253Z 00000KT 10SM SCT250 09/M04 A3000 RMK AO2 SLP155 T00941044 $
KONT 201125Z 2012/2118 VRB06KT P6SM SCT200
       
KCNO 201253Z AUTO 00000KT 8SM CLR 08/01 A3002 RMK AO2 SLP162 T00830006
KAJO 201256Z AUTO 00000KT 10SM CLR 03/01 A3001 RMK AO2 SLP177 T00330011
KLGB 201253Z AUTO 00000KT 10SM CLR 11/05 A2998 RMK AO2 SLP152 T01060050
KLGB 201127Z 2012/2112 VRB03KT P6SM BKN200 
     FM202100 19007KT P6SM BKN200 
     FM210000 29010KT P6SM BKN200 
     FM210400 VRB03KT P6SM SCT200
       
KHHR 201253Z AUTO 00000KT 10SM CLR 12/05 A2999 RMK AO2 SLP153 T01170050
KLAX 201253Z 09004KT 10SM FEW250 12/04 A2998 RMK AO2 SLP151 T01170044 $
KLAX 201127Z 2012/2118 VRB03KT P6SM BKN200 
     FM202000 27010KT P6SM BKN200 
     FM210300 VRB03KT P6SM SCT250
       
KAVX 201251Z AUTO 14004KT 10SM CLR 18/M09 A3001 RMK AO2 SLP146 T01831089 $
KSMO 201251Z AUTO 07004KT 10SM CLR 11/02 A2998 RMK AO2 SLP150 T01110017 $
KSMO 201127Z 2012/2112 VRB03KT P6SM BKN200 
     FM202000 24008KT P6SM BKN200 
     FM210200 VRB03KT P6SM SCT250
       
KCMA 201255Z AUTO 29005KT 10SM CLR 08/M01 A3000 RMK AO2 SLP167 T00831006 $
KCMA 201127Z 2012/2112 05007KT P6SM BKN200 
     FM202000 25008KT P6SM BKN200 
     FM210200 VRB03KT P6SM SCT200 
     FM211100 07007KT P6SM SCT200
       
KOXR 201251Z AUTO 00000KT CLR 13/M06 A3000 RMK AO2 SLP159 T01281056 $
KOXR 201127Z 2012/2112 05006KT P6SM BKN200 
     FM202000 27010KT P6SM BKN200 
     FM210300 VRB03KT P6SM SCT250
       
KRAL 201253Z AUTO 04005KT 10SM CLR 09/M05 A3002 RMK AO2 SLP153 T00941050
KRIV 201258Z AUTO 00000KT 10SM CLR 05/M04 A3002 RMK AO2 SLP165 T00451038
TAF KRIV 201203Z 2012/2118 VRB04KT 9999 SCT250 QNH3000INS 
     BECMG 2019/2020 31009KT 9999 FEW200 SCT250 QNH2999INS 
     BECMG 2102/2103 VRB04KT 9999 SCT250 QNH3004INS TX26/2022Z TN01/2014Z
       
KF70 201315Z AUTO 02004KT 10SM CLR 06/M04 A3002 RMK AO1
KRNM 201253Z AUTO A3000 RMK AO2 SLPNO PWINO $
KCRQ 201253Z AUTO 00000KT 10SM CLR 11/03 A2998 RMK AO2 SLP149 T01110028
KCRQ 201125Z 2012/2112 VRB06KT P6SM SCT200
       
KOKB 201252Z AUTO 00000KT 10SM CLR 06/02 A2999 RMK AO2 SLP154 T00560022
KIZA 201315Z AUTO 00000KT 10SM CLR 06/03 A3006 RMK AO2